sensor_id;sensor_type;location;lat;lon;timestamp;P1;durP1;ratioP1;P2;durP2;ratioP2
31724;SDS011;18306;40.960;14.836;2023-02-26T15:19:11;9.85;;;2.00;;
31724;SDS011;18306;40.960;14.836;2023-02-26T15:22:14;6.35;;;1.45;;
31724;SDS011;18306;40.960;14.836;2023-02-26T15:25:04;5.70;;;1.60;;
31724;SDS011;18306;40.960;14.836;2023-02-26T15:27:48;1.45;;;1.00;;
31724;SDS011;18306;40.960;14.836;2023-02-26T15:30:19;7.82;;;1.42;;
31724;SDS011;18306;40.960;14.836;2023-02-26T15:32:48;3.33;;;1.60;;
31724;SDS011;18306;40.960;14.836;2023-02-26T15:35:22;6.47;;;1.48;;
31724;SDS011;18306;40.960;14.836;2023-02-26T15:37:54;1.73;;;1.30;;
31724;SDS011;18306;40.960;14.836;2023-02-26T15:40:24;6.28;;;1.60;;
31724;SDS011;18306;40.960;14.836;2023-02-26T15:42:57;2.95;;;1.30;;
31724;SDS011;18306;40.960;14.836;2023-02-26T15:45:31;4.32;;;1.58;;
31724;SDS011;18306;40.960;14.836;2023-02-26T15:48:12;5.15;;;2.00;;
31724;SDS011;18306;40.960;14.836;2023-02-26T15:50:43;5.50;;;1.80;;
31724;SDS011;18306;40.960;14.836;2023-02-26T15:53:58;9.82;;;1.98;;
31724;SDS011;18306;40.960;14.836;2023-02-26T15:56:25;5.57;;;1.63;;
31724;SDS011;18306;40.960;14.836;2023-02-26T15:59:00;4.13;;;1.63;;
31724;SDS011;18306;40.960;14.836;2023-02-26T16:01:31;4.03;;;1.67;;
31724;SDS011;18306;40.960;14.836;2023-02-26T16:04:05;9.70;;;1.55;;
31724;SDS011;18306;40.960;14.836;2023-02-26T16:06:38;2.47;;;1.42;;
31724;SDS011;18306;40.960;14.836;2023-02-26T16:09:24;3.50;;;1.30;;
31724;SDS011;18306;40.960;14.836;2023-02-26T16:12:06;8.85;;;1.70;;
31724;SDS011;18306;40.960;14.836;2023-02-26T16:14:51;4.70;;;1.35;;
31724;SDS011;18306;40.960;14.836;2023-02-26T16:17:32;5.10;;;1.88;;
31724;SDS011;18306;40.960;14.836;2023-02-26T16:20:02;8.98;;;3.13;;
31724;SDS011;18306;40.960;14.836;2023-02-26T16:22:38;13.65;;;2.70;;
31724;SDS011;18306;40.960;14.836;2023-02-26T16:25:39;6.53;;;2.63;;
31724;SDS011;18306;40.960;14.836;2023-02-26T16:28:15;16.02;;;3.90;;
31724;SDS011;18306;40.960;14.836;2023-02-26T16:30:48;5.07;;;2.33;;
31724;SDS011;18306;40.960;14.836;2023-02-26T16:33:21;4.78;;;2.05;;
31724;SDS011;18306;40.960;14.836;2023-02-26T16:35:54;4.38;;;2.53;;
31724;SDS011;18306;40.960;14.836;2023-02-26T16:38:42;4.25;;;2.53;;
31724;SDS011;18306;40.960;14.836;2023-02-26T16:41:13;8.85;;;2.58;;
31724;SDS011;18306;40.960;14.836;2023-02-26T16:43:56;10.02;;;4.38;;
31724;SDS011;18306;40.960;14.836;2023-02-26T16:46:37;11.93;;;4.07;;
31724;SDS011;18306;40.960;14.836;2023-02-26T16:49:38;9.38;;;3.05;;
31724;SDS011;18306;40.960;14.836;2023-02-26T16:52:17;7.55;;;3.35;;
31724;SDS011;18306;40.960;14.836;2023-02-26T16:55:10;5.90;;;2.92;;
31724;SDS011;18306;40.960;14.836;2023-02-26T16:57:52;14.25;;;4.72;;
31724;SDS011;18306;40.960;14.836;2023-02-26T17:01:18;13.52;;;4.75;;
31724;SDS011;18306;40.960;14.836;2023-02-26T17:04:17;7.25;;;3.63;;
31724;SDS011;18306;40.960;14.836;2023-02-26T17:10:34;6.65;;;3.28;;
31724;SDS011;18306;40.960;14.836;2023-02-26T17:16:50;2.97;;;1.45;;
31724;SDS011;18306;40.960;14.836;2023-02-26T17:19:20;5.38;;;1.65;;
31724;SDS011;18306;40.960;14.836;2023-02-26T17:21:54;3.67;;;1.27;;
31724;SDS011;18306;40.960;14.836;2023-02-26T17:24:44;4.50;;;1.77;;
31724;SDS011;18306;40.960;14.836;2023-02-26T17:28:20;3.88;;;1.27;;
31724;SDS011;18306;40.960;14.836;2023-02-26T17:31:08;8.40;;;1.73;;
31724;SDS011;18306;40.960;14.836;2023-02-26T17:34:08;6.78;;;3.63;;
31724;SDS011;18306;40.960;14.836;2023-02-26T17:36:43;6.15;;;1.95;;
31724;SDS011;18306;40.960;14.836;2023-02-26T17:39:21;3.53;;;1.30;;
31724;SDS011;18306;40.960;14.836;2023-02-26T17:42:01;2.88;;;1.17;;
31724;SDS011;18306;40.960;14.836;2023-02-26T17:45:11;5.60;;;1.40;;
31724;SDS011;18306;40.960;14.836;2023-02-26T17:47:46;3.25;;;1.30;;
31724;SDS011;18306;40.960;14.836;2023-02-26T17:50:23;3.58;;;1.30;;
31724;SDS011;18306;40.960;14.836;2023-02-26T17:56:31;8.82;;;1.17;;
31724;SDS011;18306;40.960;14.836;2023-02-26T17:59:04;2.25;;;1.15;;
31724;SDS011;18306;40.960;14.836;2023-02-26T18:01:33;17.90;;;5.50;;
31724;SDS011;18306;40.960;14.836;2023-02-26T18:04:08;15.05;;;6.97;;
31724;SDS011;18306;40.960;14.836;2023-02-26T18:06:40;7.72;;;3.85;;
31724;SDS011;18306;40.960;14.836;2023-02-26T18:09:13;8.30;;;4.05;;
31724;SDS011;18306;40.960;14.836;2023-02-26T18:11:43;7.93;;;1.77;;
31724;SDS011;18306;40.960;14.836;2023-02-26T18:14:13;3.78;;;1.83;;
31724;SDS011;18306;40.960;14.836;2023-02-26T18:16:42;6.22;;;1.73;;
31724;SDS011;18306;40.960;14.836;2023-02-26T18:19:13;8.68;;;3.55;;
31724;SDS011;18306;40.960;14.836;2023-02-26T18:21:41;5.35;;;2.38;;
31724;SDS011;18306;40.960;14.836;2023-02-26T18:24:14;6.70;;;2.22;;
31724;SDS011;18306;40.960;14.836;2023-02-26T18:26:50;7.03;;;3.20;;
31724;SDS011;18306;40.960;14.836;2023-02-26T18:29:37;9.27;;;2.58;;
31724;SDS011;18306;40.960;14.836;2023-02-26T18:32:08;5.15;;;2.83;;
31724;SDS011;18306;40.960;14.836;2023-02-26T18:34:41;9.55;;;2.47;;
31724;SDS011;18306;40.960;14.836;2023-02-26T18:37:15;9.40;;;1.92;;
31724;SDS011;18306;40.960;14.836;2023-02-26T18:39:50;11.23;;;2.83;;
31724;SDS011;18306;40.960;14.836;2023-02-26T18:42:24;4.65;;;2.88;;
31724;SDS011;18306;40.960;14.836;2023-02-26T18:45:02;5.03;;;2.60;;
31724;SDS011;18306;40.960;14.836;2023-02-26T18:47:40;1.65;;;0.95;;
31724;SDS011;18306;40.960;14.836;2023-02-26T18:50:15;4.93;;;2.03;;
31724;SDS011;18306;40.960;14.836;2023-02-26T18:52:48;8.77;;;2.33;;
31724;SDS011;18306;40.960;14.836;2023-02-26T18:55:19;5.55;;;2.47;;
31724;SDS011;18306;40.960;14.836;2023-02-26T18:57:55;14.30;;;3.55;;
31724;SDS011;18306;40.960;14.836;2023-02-26T19:00:30;3.72;;;1.63;;
31724;SDS011;18306;40.960;14.836;2023-02-26T19:02:59;9.52;;;2.83;;
31724;SDS011;18306;40.960;14.836;2023-02-26T19:05:30;6.85;;;2.95;;
31724;SDS011;18306;40.960;14.836;2023-02-26T19:08:01;5.90;;;2.42;;
31724;SDS011;18306;40.960;14.836;2023-02-26T19:10:33;6.23;;;3.23;;
31724;SDS011;18306;40.960;14.836;2023-02-26T19:13:03;8.60;;;2.88;;
31724;SDS011;18306;40.960;14.836;2023-02-26T19:16:02;8.50;;;3.45;;
31724;SDS011;18306;40.960;14.836;2023-02-26T19:18:31;14.93;;;3.63;;
31724;SDS011;18306;40.960;14.836;2023-02-26T19:21:01;7.65;;;3.75;;
31724;SDS011;18306;40.960;14.836;2023-02-26T19:23:32;6.38;;;3.20;;
31724;SDS011;18306;40.960;14.836;2023-02-26T19:26:02;15.13;;;4.18;;
31724;SDS011;18306;40.960;14.836;2023-02-26T19:28:38;5.45;;;3.30;;
31724;SDS011;18306;40.960;14.836;2023-02-26T19:31:13;5.30;;;2.92;;
31724;SDS011;18306;40.960;14.836;2023-02-26T19:33:47;5.30;;;2.63;;
31724;SDS011;18306;40.960;14.836;2023-02-26T19:36:19;11.18;;;6.28;;
31724;SDS011;18306;40.960;14.836;2023-02-26T19:38:49;11.52;;;4.38;;
31724;SDS011;18306;40.960;14.836;2023-02-26T19:41:24;7.50;;;4.13;;
31724;SDS011;18306;40.960;14.836;2023-02-26T19:44:02;7.68;;;4.15;;
31724;SDS011;18306;40.960;14.836;2023-02-26T19:46:33;7.90;;;3.35;;
31724;SDS011;18306;40.960;14.836;2023-02-26T19:49:03;9.73;;;3.92;;
31724;SDS011;18306;40.960;14.836;2023-02-26T19:51:39;6.55;;;3.63;;
31724;SDS011;18306;40.960;14.836;2023-02-26T19:54:09;14.98;;;5.78;;
31724;SDS011;18306;40.960;14.836;2023-02-26T19:56:42;10.25;;;4.05;;
31724;SDS011;18306;40.960;14.836;2023-02-26T20:01:49;8.70;;;2.58;;
31724;SDS011;18306;40.960;14.836;2023-02-26T20:04:21;9.48;;;4.30;;
31724;SDS011;18306;40.960;14.836;2023-02-26T20:06:59;5.28;;;2.25;;
31724;SDS011;18306;40.960;14.836;2023-02-26T20:09:28;18.70;;;6.95;;
31724;SDS011;18306;40.960;14.836;2023-02-26T20:12:06;13.65;;;4.88;;
31724;SDS011;18306;40.960;14.836;2023-02-26T20:14:38;5.82;;;3.38;;
31724;SDS011;18306;40.960;14.836;2023-02-26T20:17:11;9.32;;;4.43;;
31724;SDS011;18306;40.960;14.836;2023-02-26T20:19:42;9.90;;;4.25;;
31724;SDS011;18306;40.960;14.836;2023-02-26T20:22:12;8.27;;;2.42;;
31724;SDS011;18306;40.960;14.836;2023-02-26T20:24:43;5.85;;;2.40;;
31724;SDS011;18306;40.960;14.836;2023-02-26T20:27:12;13.15;;;4.40;;
31724;SDS011;18306;40.960;14.836;2023-02-26T20:29:47;19.38;;;4.82;;
31724;SDS011;18306;40.960;14.836;2023-02-26T20:32:21;26.38;;;8.32;;
31724;SDS011;18306;40.960;14.836;2023-02-26T20:34:54;13.77;;;4.43;;
31724;SDS011;18306;40.960;14.836;2023-02-26T20:37:22;11.93;;;3.95;;
31724;SDS011;18306;40.960;14.836;2023-02-26T20:39:54;10.50;;;3.30;;
31724;SDS011;18306;40.960;14.836;2023-02-26T20:42:41;13.48;;;3.40;;
31724;SDS011;18306;40.960;14.836;2023-02-26T20:45:11;7.35;;;3.08;;
31724;SDS011;18306;40.960;14.836;2023-02-26T20:47:47;7.40;;;2.33;;
31724;SDS011;18306;40.960;14.836;2023-02-26T20:50:17;9.98;;;3.22;;
31724;SDS011;18306;40.960;14.836;2023-02-26T20:52:49;8.05;;;2.78;;
31724;SDS011;18306;40.960;14.836;2023-02-26T20:55:21;9.80;;;2.83;;
31724;SDS011;18306;40.960;14.836;2023-02-26T20:57:55;4.72;;;2.58;;
31724;SDS011;18306;40.960;14.836;2023-02-26T21:00:25;10.38;;;2.55;;
31724;SDS011;18306;40.960;14.836;2023-02-26T21:02:55;8.40;;;2.67;;
31724;SDS011;18306;40.960;14.836;2023-02-26T21:05:28;9.88;;;5.78;;
31724;SDS011;18306;40.960;14.836;2023-02-26T21:07:56;12.85;;;5.63;;
31724;SDS011;18306;40.960;14.836;2023-02-26T21:10:25;14.13;;;5.35;;
31724;SDS011;18306;40.960;14.836;2023-02-26T21:12:54;6.18;;;2.80;;
31724;SDS011;18306;40.960;14.836;2023-02-26T21:15:21;6.35;;;2.10;;
31724;SDS011;18306;40.960;14.836;2023-02-26T21:17:55;10.77;;;2.63;;
31724;SDS011;18306;40.960;14.836;2023-02-26T21:20:24;5.32;;;2.78;;
31724;SDS011;18306;40.960;14.836;2023-02-26T21:23:02;9.80;;;2.15;;
31724;SDS011;18306;40.960;14.836;2023-02-26T21:25:37;9.55;;;4.05;;
31724;SDS011;18306;40.960;14.836;2023-02-26T21:28:09;12.32;;;3.72;;
31724;SDS011;18306;40.960;14.836;2023-02-26T21:30:45;9.60;;;3.70;;
31724;SDS011;18306;40.960;14.836;2023-02-26T21:33:21;29.58;;;8.18;;
31724;SDS011;18306;40.960;14.836;2023-02-26T21:35:49;22.33;;;7.00;;
31724;SDS011;18306;40.960;14.836;2023-02-26T21:38:21;14.60;;;3.75;;
31724;SDS011;18306;40.960;14.836;2023-02-26T21:40:54;12.20;;;6.32;;
31724;SDS011;18306;40.960;14.836;2023-02-26T21:43:29;16.23;;;6.05;;
31724;SDS011;18306;40.960;14.836;2023-02-26T21:46:06;3.72;;;2.25;;
31724;SDS011;18306;40.960;14.836;2023-02-26T21:48:43;19.35;;;5.05;;
31724;SDS011;18306;40.960;14.836;2023-02-26T21:51:20;10.32;;;4.13;;
31724;SDS011;18306;40.960;14.836;2023-02-26T21:53:48;11.07;;;4.38;;
31724;SDS011;18306;40.960;14.836;2023-02-26T21:56:19;11.93;;;4.07;;
31724;SDS011;18306;40.960;14.836;2023-02-26T21:58:53;4.32;;;2.05;;
31724;SDS011;18306;40.960;14.836;2023-02-26T22:01:30;12.38;;;3.63;;
31724;SDS011;18306;40.960;14.836;2023-02-26T22:03:59;8.60;;;2.78;;
31724;SDS011;18306;40.960;14.836;2023-02-26T22:06:27;10.23;;;4.10;;
31724;SDS011;18306;40.960;14.836;2023-02-26T22:08:54;7.18;;;3.10;;
31724;SDS011;18306;40.960;14.836;2023-02-26T22:11:22;4.60;;;1.95;;
31724;SDS011;18306;40.960;14.836;2023-02-26T22:13:50;7.15;;;3.08;;
31724;SDS011;18306;40.960;14.836;2023-02-26T22:16:19;7.07;;;2.35;;
31724;SDS011;18306;40.960;14.836;2023-02-26T22:18:48;7.22;;;2.05;;
31724;SDS011;18306;40.960;14.836;2023-02-26T22:21:19;19.73;;;8.13;;
31724;SDS011;18306;40.960;14.836;2023-02-26T22:23:50;21.65;;;4.53;;
31724;SDS011;18306;40.960;14.836;2023-02-26T22:26:19;30.35;;;9.77;;
31724;SDS011;18306;40.960;14.836;2023-02-26T22:28:50;37.08;;;12.70;;
31724;SDS011;18306;40.960;14.836;2023-02-26T22:31:27;29.73;;;9.85;;
31724;SDS011;18306;40.960;14.836;2023-02-26T22:34:02;15.45;;;5.72;;
31724;SDS011;18306;40.960;14.836;2023-02-26T22:36:33;16.80;;;6.28;;
31724;SDS011;18306;40.960;14.836;2023-02-26T22:39:02;11.57;;;4.43;;
31724;SDS011;18306;40.960;14.836;2023-02-26T22:41:32;7.38;;;2.60;;
31724;SDS011;18306;40.960;14.836;2023-02-26T22:44:01;6.45;;;2.17;;
31724;SDS011;18306;40.960;14.836;2023-02-26T22:46:32;23.05;;;4.15;;
31724;SDS011;18306;40.960;14.836;2023-02-26T22:49:03;7.25;;;1.92;;
31724;SDS011;18306;40.960;14.836;2023-02-26T22:51:35;4.22;;;2.13;;
31724;SDS011;18306;40.960;14.836;2023-02-26T22:54:10;6.82;;;3.00;;
31724;SDS011;18306;40.960;14.836;2023-02-26T22:56:39;3.20;;;1.38;;
31724;SDS011;18306;40.960;14.836;2023-02-26T22:59:10;5.00;;;2.08;;
31724;SDS011;18306;40.960;14.836;2023-02-26T23:01:44;9.45;;;3.65;;
31724;SDS011;18306;40.960;14.836;2023-02-26T23:06:46;5.88;;;2.63;;
31724;SDS011;18306;40.960;14.836;2023-02-26T23:09:18;8.75;;;2.75;;
31724;SDS011;18306;40.960;14.836;2023-02-26T23:14:29;7.13;;;2.50;;
31724;SDS011;18306;40.960;14.836;2023-02-26T23:17:03;8.75;;;2.95;;
31724;SDS011;18306;40.960;14.836;2023-02-26T23:19:36;9.52;;;1.90;;
31724;SDS011;18306;40.960;14.836;2023-02-26T23:22:06;9.82;;;1.80;;
31724;SDS011;18306;40.960;14.836;2023-02-26T23:24:37;6.63;;;1.63;;
31724;SDS011;18306;40.960;14.836;2023-02-26T23:27:08;4.68;;;1.52;;
31724;SDS011;18306;40.960;14.836;2023-02-26T23:29:36;7.53;;;1.17;;
31724;SDS011;18306;40.960;14.836;2023-02-26T23:32:05;3.28;;;1.20;;
31724;SDS011;18306;40.960;14.836;2023-02-26T23:34:35;7.60;;;1.85;;
31724;SDS011;18306;40.960;14.836;2023-02-26T23:37:03;7.68;;;1.40;;
31724;SDS011;18306;40.960;14.836;2023-02-26T23:39:36;8.35;;;1.25;;
31724;SDS011;18306;40.960;14.836;2023-02-26T23:42:05;1.85;;;1.02;;
31724;SDS011;18306;40.960;14.836;2023-02-26T23:44:36;6.03;;;1.00;;
31724;SDS011;18306;40.960;14.836;2023-02-26T23:47:09;3.72;;;1.52;;
31724;SDS011;18306;40.960;14.836;2023-02-26T23:49:46;9.27;;;0.98;;
31724;SDS011;18306;40.960;14.836;2023-02-26T23:52:24;2.65;;;1.25;;
31724;SDS011;18306;40.960;14.836;2023-02-26T23:54:54;11.05;;;1.52;;
31724;SDS011;18306;40.960;14.836;2023-02-26T23:57:36;3.95;;;1.08;;
